Time,TemperatureF,DewpointF,PressureIn,WindDirection,WindDirectionDegrees,WindSpeedMPH,WindSpeedGustMPH,Humidity,HourlyPrecipIn,Conditions,Clouds,dailyrainin,SoftwareType,DateUTC
2013-01-16 00:03:00,31.9,19.2,30.47,SW,227,8.0,22.0,59,0.00,,SKC,0.00,VWS V12.07,2013-01-16 08:03:00,
2013-01-16 00:12:00,31.5,18.4,30.47,SW,217,13.0,22.0,58,0.00,,SKC,0.00,VWS V12.07,2013-01-16 08:12:00,
2013-01-16 00:22:00,31.3,18.2,30.47,SSW,211,10.0,22.0,58,0.00,,SKC,0.00,VWS V12.07,2013-01-16 08:22:00,
2013-01-16 00:32:00,30.8,18.2,30.47,SW,219,11.0,16.0,59,0.00,,SKC,0.00,VWS V12.07,2013-01-16 08:32:00,
2013-01-16 00:42:00,31.2,18.5,30.48,SW,226,14.0,21.0,59,0.00,,SKC,0.00,VWS V12.07,2013-01-16 08:42:00,
2013-01-16 00:52:00,31.0,18.8,30.48,SW,219,10.0,21.0,60,0.00,,SKC,0.00,VWS V12.07,2013-01-16 08:52:00,
2013-01-16 01:02:00,30.7,19.2,30.48,SW,226,9.0,17.0,62,0.00,,SKC,0.00,VWS V12.07,2013-01-16 09:02:00,
2013-01-16 01:12:00,30.5,19.0,30.48,SW,231,17.0,21.0,62,0.00,,SKC,0.00,VWS V12.07,2013-01-16 09:12:00,
2013-01-16 01:22:00,30.7,18.9,30.48,SW,214,11.0,23.0,61,0.00,,SKC,0.00,VWS V12.07,2013-01-16 09:22:00,
2013-01-16 01:32:00,30.6,18.4,30.47,SW,214,19.0,23.0,60,0.00,,SKC,0.00,VWS V12.07,2013-01-16 09:32:00,
2013-01-16 01:42:00,30.3,17.7,30.47,SSW,211,14.0,24.0,59,0.00,,SKC,0.00,VWS V12.07,2013-01-16 09:42:00,
2013-01-16 01:52:00,29.9,17.7,30.48,SSW,212,18.0,26.0,60,0.00,,SKC,0.00,VWS V12.07,2013-01-16 09:52:00,
2013-01-16 02:02:00,29.5,17.7,30.48,SSW,211,12.0,24.0,61,0.00,,SKC,0.00,VWS V12.07,2013-01-16 10:02:00,
2013-01-16 02:12:00,29.2,17.8,30.49,SW,219,14.0,25.0,62,0.00,,SKC,0.00,VWS V12.07,2013-01-16 10:12:00,
2013-01-16 02:22:00,29.2,17.8,30.49,SSW,212,20.0,25.0,62,0.00,,SKC,0.00,VWS V12.07,2013-01-16 10:22:00,
2013-01-16 02:32:00,29.1,18.1,30.49,SSW,205,17.0,23.0,63,0.00,,SKC,0.00,VWS V12.07,2013-01-16 10:32:00,
2013-01-16 02:42:00,28.9,18.3,30.49,SSW,211,23.0,25.0,64,0.00,,SKC,0.00,VWS V12.07,2013-01-16 10:42:00,
2013-01-16 02:52:00,28.8,18.2,30.49,SSW,207,14.0,25.0,64,0.00,,SKC,0.00,VWS V12.07,2013-01-16 10:52:00,
2013-01-16 03:02:00,28.4,17.1,30.49,SW,214,19.0,25.0,62,0.00,,SKC,0.00,VWS V12.07,2013-01-16 11:02:00,
2013-01-16 03:13:00,28.0,16.7,30.48,SW,225,16.0,25.0,62,0.00,,SKC,0.00,VWS V12.07,2013-01-16 11:13:00,
2013-01-16 03:22:00,28.2,16.9,30.49,SW,215,18.0,25.0,62,0.00,,SKC,0.00,VWS V12.07,2013-01-16 11:22:00,
2013-01-16 03:32:00,28.3,16.6,30.49,SSW,209,24.0,25.0,61,0.00,,SKC,0.00,VWS V12.07,2013-01-16 11:32:00,
2013-01-16 03:42:00,28.2,16.5,30.48,SW,218,22.0,27.0,61,0.00,,SKC,0.00,VWS V12.07,2013-01-16 11:42:00,
2013-01-16 03:52:00,28.0,16.3,30.49,SSW,206,14.0,27.0,61,0.00,,SKC,0.00,VWS V12.07,2013-01-16 11:52:00,
2013-01-16 04:02:00,28.2,16.5,30.48,SW,219,22.0,25.0,61,0.00,,SKC,0.00,VWS V12.07,2013-01-16 12:02:00,
2013-01-16 04:12:00,28.2,16.5,30.47,SW,216,19.0,25.0,61,0.00,,SKC,0.00,VWS V12.07,2013-01-16 12:12:00,
2013-01-16 04:22:00,28.0,16.3,30.47,SSW,213,16.0,27.0,61,0.00,,SKC,0.00,VWS V12.07,2013-01-16 12:22:00,
2013-01-16 04:32:00,27.9,16.2,30.47,SW,215,18.0,21.0,61,0.00,,SKC,0.00,VWS V12.07,2013-01-16 12:32:00,
2013-01-16 04:42:00,27.4,16.1,30.47,SW,216,12.0,28.0,62,0.00,,SKC,0.00,VWS V12.07,2013-01-16 12:42:00,
2013-01-16 04:52:00,27.0,16.5,30.47,SSW,213,18.0,28.0,64,0.00,,SKC,0.00,VWS V12.07,2013-01-16 12:52:00,
2013-01-16 05:02:00,26.9,16.4,30.47,SSW,209,15.0,21.0,64,0.00,,SKC,0.00,VWS V12.07,2013-01-16 13:02:00,
2013-01-16 05:12:00,26.6,16.4,30.47,SSW,210,19.0,26.0,65,0.00,,SKC,0.00,VWS V12.07,2013-01-16 13:12:00,
2013-01-16 05:22:00,26.6,16.1,30.47,SSW,212,19.0,26.0,64,0.00,,SKC,0.00,VWS V12.07,2013-01-16 13:22:00,
2013-01-16 05:32:00,26.2,15.3,30.46,SSW,208,21.0,24.0,63,0.00,,SKC,0.00,VWS V12.07,2013-01-16 13:32:00,
2013-01-16 05:42:00,26.0,15.5,30.46,SSW,210,15.0,28.0,64,0.00,,SKC,0.00,VWS V12.07,2013-01-16 13:42:00,
2013-01-16 05:52:00,25.7,15.6,30.46,SSW,198,22.0,28.0,65,0.00,,SKC,0.00,VWS V12.07,2013-01-16 13:52:00,
2013-01-16 06:02:00,25.5,15.4,30.47,SSW,206,13.0,28.0,65,0.00,,SKC,0.00,VWS V12.07,2013-01-16 14:02:00,
2013-01-16 06:12:00,25.0,15.3,30.47,SSW,210,21.0,29.0,66,0.00,,SKC,0.00,VWS V12.07,2013-01-16 14:12:00,
2013-01-16 06:22:00,24.5,14.8,30.46,SW,215,25.0,29.0,66,0.00,,SKC,0.00,VWS V12.07,2013-01-16 14:22:00,
2013-01-16 06:32:00,24.2,14.8,30.46,SSW,201,19.0,23.0,67,0.00,,SKC,0.00,VWS V12.07,2013-01-16 14:32:00,
2013-01-16 06:42:00,23.5,14.2,30.46,SW,216,15.0,32.0,67,0.00,,SKC,0.00,VWS V12.07,2013-01-16 14:42:00,
2013-01-16 06:52:00,23.5,14.2,30.47,SW,215,17.0,32.0,67,0.00,,SKC,0.00,VWS V12.07,2013-01-16 14:52:00,
2013-01-16 07:02:00,23.6,13.9,30.46,SSW,213,25.0,29.0,66,0.00,,SKC,0.00,VWS V12.07,2013-01-16 15:02:00,
2013-01-16 07:12:00,23.3,13.6,30.47,SSW,211,21.0,31.0,66,0.00,,SKC,0.00,VWS V12.07,2013-01-16 15:12:00,
2013-01-16 07:22:00,23.3,13.6,30.47,SSW,210,15.0,31.0,66,0.00,,SKC,0.00,VWS V12.07,2013-01-16 15:22:00,
2013-01-16 07:32:00,23.3,13.6,30.48,SSW,210,17.0,24.0,66,0.00,,SKC,0.00,VWS V12.07,2013-01-16 15:32:00,
2013-01-16 07:42:00,23.6,13.6,30.47,SW,216,24.0,30.0,65,0.00,,SKC,0.00,VWS V12.07,2013-01-16 15:42:00,
2013-01-16 07:52:00,23.6,13.6,30.47,SW,222,25.0,31.0,65,0.00,,SKC,0.00,VWS V12.07,2013-01-16 15:52:00,
2013-01-16 08:02:00,23.8,13.4,30.48,SSW,213,23.0,28.0,64,0.00,,SKC,0.00,VWS V12.07,2013-01-16 16:02:00,
2013-01-16 08:12:00,24.0,13.2,30.49,SW,218,18.0,29.0,63,0.00,,SKC,0.00,VWS V12.07,2013-01-16 16:12:00,
2013-01-16 08:22:00,24.6,13.4,30.48,SW,217,24.0,32.0,62,0.00,,SKC,0.00,VWS V12.07,2013-01-16 16:22:00,
2013-01-16 08:32:00,24.9,13.7,30.48,SW,215,19.0,26.0,62,0.00,,SKC,0.00,VWS V12.07,2013-01-16 16:32:00,
2013-01-16 08:42:00,25.2,14.0,30.48,SW,214,16.0,27.0,62,0.00,,SKC,0.00,VWS V12.07,2013-01-16 16:42:00,
2013-01-16 08:52:00,25.7,14.5,30.48,SSW,211,17.0,30.0,62,0.00,,SKC,0.00,VWS V12.07,2013-01-16 16:52:00,
2013-01-16 09:02:00,25.9,14.7,30.49,SW,215,14.0,34.0,62,0.00,,SKC,0.00,VWS V12.07,2013-01-16 17:02:00,
2013-01-16 09:12:00,26.5,15.3,30.48,SSW,208,22.0,34.0,62,0.00,,SKC,0.00,VWS V12.07,2013-01-16 17:12:00,
2013-01-16 09:22:00,26.9,15.3,30.49,SSW,204,16.0,34.0,61,0.00,,SKC,0.00,VWS V12.07,2013-01-16 17:22:00,
2013-01-16 09:32:00,27.3,15.6,30.49,SW,216,16.0,25.0,61,0.00,,SKC,0.00,VWS V12.07,2013-01-16 17:32:00,
2013-01-16 09:42:00,27.9,15.4,30.48,SSW,212,20.0,31.0,59,0.00,,SKC,0.00,VWS V12.07,2013-01-16 17:42:00,
2013-01-16 09:52:00,28.6,15.3,30.48,SSW,206,21.0,31.0,57,0.00,,SKC,0.00,VWS V12.07,2013-01-16 17:52:00,
2013-01-16 10:02:00,29.7,15.5,30.47,SSW,209,14.0,24.0,55,0.00,,SKC,0.00,VWS V12.07,2013-01-16 18:02:00,
2013-01-16 10:12:00,30.6,15.9,30.47,SSW,212,21.0,26.0,54,0.00,,SKC,0.00,VWS V12.07,2013-01-16 18:12:00,
2013-01-16 10:22:00,31.4,15.8,30.47,SSW,213,15.0,30.0,52,0.00,,SKC,0.00,VWS V12.07,2013-01-16 18:22:00,
2013-01-16 10:32:00,32.6,16.0,30.47,SSW,203,21.0,25.0,50,0.00,,SKC,0.00,VWS V12.07,2013-01-16 18:32:00,
2013-01-16 10:42:00,33.7,16.1,30.47,SW,216,22.0,25.0,48,0.00,,SKC,0.00,VWS V12.07,2013-01-16 18:42:00,
2013-01-16 10:52:00,34.2,16.1,30.47,SSW,213,9.0,26.0,47,0.00,,SKC,0.00,VWS V12.07,2013-01-16 18:52:00,
2013-01-16 11:02:00,35.4,16.7,30.47,SSW,206,16.0,20.0,46,0.00,,SKC,0.00,VWS V12.07,2013-01-16 19:02:00,
2013-01-16 11:12:00,36.4,16.6,30.46,SW,215,13.0,25.0,44,0.00,,SKC,0.00,VWS V12.07,2013-01-16 19:12:00,
2013-01-16 11:22:00,37.2,16.8,30.45,SSW,206,13.0,25.0,43,0.00,,SKC,0.00,VWS V12.07,2013-01-16 19:22:00,
2013-01-16 11:32:00,38.6,17.0,30.45,SSW,212,14.0,19.0,41,0.00,,SKC,0.00,VWS V12.07,2013-01-16 19:32:00,
2013-01-16 11:42:00,39.1,16.8,30.44,SSW,206,15.0,22.0,40,0.00,,SKC,0.00,VWS V12.07,2013-01-16 19:42:00,
2013-01-16 11:52:00,39.7,16.8,30.44,SSW,208,13.0,26.0,39,0.00,,SKC,0.00,VWS V12.07,2013-01-16 19:52:00,
2013-01-16 12:02:00,40.7,17.7,30.45,SSW,198,8.0,18.0,39,0.00,,SKC,0.00,VWS V12.07,2013-01-16 20:02:00,
2013-01-16 12:12:00,42.1,18.3,30.44,SSW,209,15.0,19.0,38,0.00,,SKC,0.00,VWS V12.07,2013-01-16 20:12:00,
2013-01-16 12:22:00,42.8,18.4,30.43,SSW,198,12.0,19.0,37,0.00,,SKC,0.00,VWS V12.07,2013-01-16 20:22:00,
2013-01-16 12:32:00,43.4,17.6,30.43,SSW,193,15.0,17.0,35,0.00,,SKC,0.00,VWS V12.07,2013-01-16 20:32:00,
2013-01-16 12:42:00,43.9,16.7,30.43,SSW,199,13.0,18.0,33,0.00,,SKC,0.00,VWS V12.07,2013-01-16 20:42:00,
2013-01-16 12:52:00,44.4,17.1,30.42,SSW,205,15.0,20.0,33,0.00,,SKC,0.00,VWS V12.07,2013-01-16 20:52:00,
2013-01-16 13:02:00,45.2,17.8,30.41,SSW,200,11.0,16.0,33,0.00,,SKC,0.00,VWS V12.07,2013-01-16 21:02:00,
2013-01-16 13:12:00,46.1,17.9,30.41,SSW,196,13.0,17.0,32,0.00,,SKC,0.00,VWS V12.07,2013-01-16 21:12:00,
2013-01-16 13:22:00,46.6,17.6,30.42,SW,214,11.0,18.0,31,0.00,,SKC,0.00,VWS V12.07,2013-01-16 21:22:00,
2013-01-16 13:32:00,47.5,16.8,30.41,SSW,197,8.0,14.0,29,0.00,,SKC,0.00,VWS V12.07,2013-01-16 21:32:00,
2013-01-16 13:42:00,48.6,17.0,30.41,SSW,201,11.0,14.0,28,0.00,,SKC,0.00,VWS V12.07,2013-01-16 21:42:00,
2013-01-16 13:52:00,49.4,16.8,30.42,SSW,196,8.0,15.0,27,0.00,,SKC,0.00,VWS V12.07,2013-01-16 21:52:00,
2013-01-16 14:02:00,50.3,17.6,30.41,SSW,203,9.0,12.0,27,0.00,,SKC,0.00,VWS V12.07,2013-01-16 22:02:00,
2013-01-16 14:12:00,50.7,17.1,30.40,SSW,206,7.0,13.0,26,0.00,,SKC,0.00,VWS V12.07,2013-01-16 22:12:00,
2013-01-16 14:22:00,51.0,18.2,30.41,SW,215,7.0,14.0,27,0.00,,SKC,0.00,VWS V12.07,2013-01-16 22:22:00,
2013-01-16 14:32:00,51.9,18.1,30.40,SSW,202,8.0,11.0,26,0.00,,SKC,0.00,VWS V12.07,2013-01-16 22:32:00,
2013-01-16 14:42:00,52.2,18.4,30.40,South,188,7.0,14.0,26,0.00,,SKC,0.00,VWS V12.07,2013-01-16 22:42:00,
2013-01-16 14:52:00,52.2,17.5,30.41,SSW,198,6.0,14.0,25,0.00,,SKC,0.00,VWS V12.07,2013-01-16 22:52:00,
2013-01-16 15:02:00,52.7,17.9,30.41,SSW,204,3.0,7.0,25,0.00,,SKC,0.00,VWS V12.07,2013-01-16 23:02:00,
2013-01-16 15:12:00,52.9,18.0,30.40,SSW,204,4.0,8.0,25,0.00,,SKC,0.00,VWS V12.07,2013-01-16 23:12:00,
2013-01-16 15:22:00,53.5,17.6,30.40,SSW,204,2.0,8.0,24,0.00,,SKC,0.00,VWS V12.07,2013-01-16 23:22:00,
2013-01-16 15:32:00,54.0,18.0,30.41,SSW,204,3.0,5.0,24,0.00,,SKC,0.00,VWS V12.07,2013-01-16 23:32:00,
2013-01-16 15:42:00,53.5,17.6,30.41,SSW,204,4.0,6.0,24,0.00,,SKC,0.00,VWS V12.07,2013-01-16 23:42:00,
2013-01-16 15:52:00,53.2,17.4,30.40,SSW,204,7.0,9.0,24,0.00,,SKC,0.00,VWS V12.07,2013-01-16 23:52:00,
2013-01-16 16:02:00,53.1,17.3,30.40,SSW,204,4.0,6.0,24,0.00,,SKC,0.00,VWS V12.07,2013-01-17 00:02:00,
2013-01-16 16:12:00,52.9,17.1,30.40,SSW,204,4.0,6.0,24,0.00,,SKC,0.00,VWS V12.07,2013-01-17 00:12:00,
2013-01-16 16:22:00,52.2,17.5,30.40,SSW,204,5.0,7.0,25,0.00,,SKC,0.00,VWS V12.07,2013-01-17 00:22:00,
2013-01-16 16:32:00,51.6,17.9,30.40,SSW,204,2.0,5.0,26,0.00,,SKC,0.00,VWS V12.07,2013-01-17 00:32:00,
2013-01-16 16:42:00,51.1,18.3,30.40,SSW,204,3.0,6.0,27,0.00,,SKC,0.00,VWS V12.07,2013-01-17 00:42:00,
2013-01-16 16:52:00,50.4,17.7,30.40,SSW,204,6.0,7.0,27,0.00,,SKC,0.00,VWS V12.07,2013-01-17 00:52:00,
2013-01-16 17:02:00,49.7,16.2,30.40,SSW,204,7.0,9.0,26,0.00,,SKC,0.00,VWS V12.07,2013-01-17 01:02:00,
2013-01-16 17:12:00,49.1,14.8,30.40,SSW,205,4.0,10.0,25,0.00,,SKC,0.00,VWS V12.07,2013-01-17 01:12:00,
2013-01-16 17:22:00,48.5,16.1,30.40,SSW,207,7.0,10.0,27,0.00,,SKC,0.00,VWS V12.07,2013-01-17 01:22:00,
2013-01-16 17:32:00,47.8,15.5,30.39,SSW,211,7.0,8.0,27,0.00,,SKC,0.00,VWS V12.07,2013-01-17 01:32:00,
2013-01-16 17:42:00,46.3,16.6,30.40,SSW,211,3.0,9.0,30,0.00,,SKC,0.00,VWS V12.07,2013-01-17 01:42:00,
2013-01-16 17:52:00,44.4,17.1,30.39,SSW,211,3.0,9.0,33,0.00,,SKC,0.00,VWS V12.07,2013-01-17 01:52:00,
2013-01-16 18:02:00,42.0,17.6,30.41,SSW,211,5.0,7.0,37,0.00,,SKC,0.00,VWS V12.07,2013-01-17 02:02:00,
2013-01-16 18:12:00,41.5,17.2,30.39,SSW,211,5.0,7.0,37,0.00,,SKC,0.00,VWS V12.07,2013-01-17 02:12:00,
2013-01-16 18:22:00,41.5,16.5,30.40,SSW,211,2.0,7.0,36,0.00,,SKC,0.00,VWS V12.07,2013-01-17 02:22:00,
2013-01-16 18:32:00,41.2,16.3,30.39,SSW,213,4.0,9.0,36,0.00,,SKC,0.00,VWS V12.07,2013-01-17 02:32:00,
2013-01-16 18:42:00,40.8,15.9,30.40,SW,215,3.0,9.0,36,0.00,,SKC,0.00,VWS V12.07,2013-01-17 02:42:00,
2013-01-16 18:52:00,40.5,16.3,30.40,SW,215,2.0,10.0,37,0.00,,SKC,0.00,VWS V12.07,2013-01-17 02:52:00,
2013-01-16 19:02:00,40.4,16.8,30.41,SW,217,5.0,8.0,38,0.00,,SKC,0.00,VWS V12.07,2013-01-17 03:02:00,
2013-01-16 19:12:00,40.5,16.3,30.40,SW,223,8.0,11.0,37,0.00,,SKC,0.00,VWS V12.07,2013-01-17 03:12:00,
2013-01-16 19:22:00,40.2,16.0,30.40,SW,226,2.0,12.0,37,0.00,,SKC,0.00,VWS V12.07,2013-01-17 03:22:00,
2013-01-16 19:32:00,39.5,16.6,30.40,SW,229,2.0,11.0,39,0.00,,SKC,0.00,VWS V12.07,2013-01-17 03:32:00,
2013-01-16 19:42:00,39.4,16.5,30.40,SW,224,11.0,16.0,39,0.00,,SKC,0.00,VWS V12.07,2013-01-17 03:42:00,
2013-01-16 19:53:00,39.4,16.5,30.40,SW,220,10.0,19.0,39,0.00,,SKC,0.00,VWS V12.07,2013-01-17 03:53:00,
2013-01-16 20:02:00,39.1,15.6,30.40,SW,226,11.0,15.0,38,0.00,,SKC,0.00,VWS V12.07,2013-01-17 04:02:00,
2013-01-16 20:12:00,39.0,16.2,30.40,SW,222,11.0,18.0,39,0.00,,SKC,0.00,VWS V12.07,2013-01-17 04:12:00,
2013-01-16 20:22:00,39.0,16.2,30.41,SW,228,14.0,20.0,39,0.00,,SKC,0.00,VWS V12.07,2013-01-17 04:22:00,
2013-01-16 20:32:00,38.8,16.0,30.39,SW,218,16.0,18.0,39,0.00,,SKC,0.00,VWS V12.07,2013-01-17 04:32:00,
2013-01-16 20:42:00,38.4,17.3,30.39,SW,221,18.0,21.0,42,0.00,,SKC,0.00,VWS V12.07,2013-01-17 04:42:00,
2013-01-16 20:52:00,38.1,17.0,30.40,SW,226,14.0,21.0,42,0.00,,SKC,0.00,VWS V12.07,2013-01-17 04:52:00,
2013-01-16 21:02:00,36.9,17.0,30.40,SW,221,12.0,18.0,44,0.00,,SKC,0.00,VWS V12.07,2013-01-17 05:02:00,
2013-01-16 21:12:00,36.6,17.3,30.40,SW,216,11.0,21.0,45,0.00,,SKC,0.00,VWS V12.07,2013-01-17 05:12:00,
2013-01-16 21:22:00,36.1,17.3,30.40,SW,217,11.0,22.0,46,0.00,,SKC,0.00,VWS V12.07,2013-01-17 05:22:00,
2013-01-16 21:32:00,35.7,17.5,30.40,SW,227,20.0,22.0,47,0.00,,SKC,0.00,VWS V12.07,2013-01-17 05:32:00,
2013-01-16 21:42:00,35.6,17.4,30.39,SW,219,15.0,24.0,47,0.00,,SKC,0.00,VWS V12.07,2013-01-17 05:42:00,
2013-01-16 21:52:00,35.7,17.5,30.39,SW,219,11.0,25.0,47,0.00,,SKC,0.00,VWS V12.07,2013-01-17 05:52:00,
2013-01-16 22:02:00,35.6,17.4,30.39,SW,215,14.0,25.0,47,0.00,,SKC,0.00,VWS V12.07,2013-01-17 06:02:00,
2013-01-16 22:12:00,35.4,16.7,30.39,SW,223,18.0,25.0,46,0.00,,SKC,0.00,VWS V12.07,2013-01-17 06:12:00,
2013-01-16 22:22:00,35.1,16.9,30.39,SW,214,17.0,25.0,47,0.00,,SKC,0.00,VWS V12.07,2013-01-17 06:22:00,
2013-01-16 22:32:00,35.1,16.9,30.39,SW,224,18.0,22.0,47,0.00,,SKC,0.00,VWS V12.07,2013-01-17 06:32:00,
2013-01-16 22:42:00,35.0,16.8,30.39,SW,218,14.0,25.0,47,0.00,,SKC,0.00,VWS V12.07,2013-01-17 06:42:00,
2013-01-16 22:52:00,34.8,17.1,30.39,SSW,212,14.0,25.0,48,0.00,,SKC,0.00,VWS V12.07,2013-01-17 06:52:00,
2013-01-16 23:02:00,34.7,16.5,30.39,SSW,212,15.0,21.0,47,0.00,,SKC,0.00,VWS V12.07,2013-01-17 07:02:00,
2013-01-16 23:12:00,35.0,16.8,30.39,SSW,209,13.0,21.0,47,0.00,,SKC,0.00,VWS V12.07,2013-01-17 07:12:00,
2013-01-16 23:22:00,34.8,17.1,30.39,SW,220,14.0,21.0,48,0.00,,SKC,0.00,VWS V12.07,2013-01-17 07:22:00,
2013-01-16 23:32:00,34.3,17.1,30.39,WSW,256,5.0,12.0,49,0.00,,SKC,0.00,VWS V12.07,2013-01-17 07:32:00,
2013-01-16 23:42:00,34.3,17.6,30.40,WSW,238,7.0,19.0,50,0.00,,SKC,0.00,VWS V12.07,2013-01-17 07:42:00,
2013-01-16 23:52:00,33.9,17.7,30.39,SW,236,9.0,19.0,51,0.00,,SKC,0.00,VWS V12.07,2013-01-17 07:52:00,